createdAt,value
2018-07-07T00:01:38.213Z,29.90
2018-07-07T00:04:07.465Z,29.90
2018-07-07T00:06:36.907Z,29.90
2018-07-07T00:09:06.484Z,29.80
2018-07-07T00:11:35.734Z,29.60
2018-07-07T00:14:04.994Z,29.50
2018-07-07T00:16:35.238Z,29.20
2018-07-07T00:19:04.444Z,29.90
2018-07-07T00:21:34.203Z,29.60
2018-07-07T00:24:03.479Z,29.40
2018-07-07T00:26:32.816Z,29.20
2018-07-07T00:29:02.179Z,29.10
2018-07-07T00:31:31.449Z,29.40
2018-07-07T00:34:00.652Z,28.90
2018-07-07T00:36:29.960Z,28.80
2018-07-07T00:38:59.195Z,28.30
2018-07-07T00:41:28.411Z,28.30
2018-07-07T00:43:57.610Z,28.50
2018-07-07T00:46:26.915Z,28.60
2018-07-07T00:48:56.167Z,28.40
2018-07-07T00:51:25.395Z,28.40
2018-07-07T00:53:54.607Z,28.20
2018-07-07T00:56:24.505Z,28.00
2018-07-07T00:58:53.968Z,27.70
2018-07-07T01:01:23.649Z,28.00
2018-07-07T01:03:52.867Z,28.00
2018-07-07T01:06:27.117Z,28.00
2018-07-07T01:08:56.381Z,27.90
2018-07-07T01:11:25.632Z,27.80
2018-07-07T01:13:54.927Z,27.60
2018-07-07T01:16:24.676Z,28.00
2018-07-07T01:18:53.923Z,28.90
2018-07-07T01:21:23.238Z,29.50
2018-07-07T01:23:52.634Z,29.70
2018-07-07T01:26:21.848Z,30.00
2018-07-07T01:28:51.043Z,30.20
2018-07-07T01:36:17.827Z,30.00
2018-07-07T01:38:47.373Z,29.90
2018-07-07T01:41:16.647Z,29.80
2018-07-07T01:43:45.949Z,29.70
2018-07-07T01:46:15.400Z,29.50
2018-07-07T01:48:44.718Z,29.70
2018-07-07T01:51:13.981Z,30.10
2018-07-07T01:53:43.162Z,29.60
2018-07-07T01:56:12.397Z,29.70
2018-07-07T01:58:41.599Z,29.90
2018-07-07T02:01:10.810Z,30.40
2018-07-07T02:03:40.036Z,30.30
2018-07-07T02:06:09.290Z,31.00
2018-07-07T02:08:38.561Z,31.00
2018-07-07T02:11:07.761Z,30.90
2018-07-07T02:13:37.187Z,30.90
2018-07-07T02:16:06.701Z,30.80
2018-07-07T02:18:35.944Z,30.80
2018-07-07T02:21:05.167Z,31.00
2018-07-07T02:23:34.443Z,31.60
2018-07-07T02:26:03.819Z,32.20
2018-07-07T02:28:33.198Z,32.40
2018-07-07T02:31:02.388Z,32.70
2018-07-07T02:33:31.621Z,32.90
2018-07-07T02:36:00.861Z,32.80
2018-07-07T02:38:30.099Z,32.70
2018-07-07T02:40:59.405Z,32.70
2018-07-07T02:43:28.594Z,32.30
2018-07-07T02:45:58.040Z,32.30
2018-07-07T02:48:27.229Z,32.20
2018-07-07T02:50:56.465Z,32.40
2018-07-07T02:53:25.687Z,32.40
2018-07-07T02:55:54.872Z,32.00
2018-07-07T02:58:24.051Z,31.60
2018-07-07T03:00:53.300Z,31.40
2018-07-07T03:03:22.558Z,31.30
2018-07-07T03:05:51.763Z,31.40
2018-07-07T03:08:21.003Z,31.50
2018-07-07T03:10:50.196Z,31.40
2018-07-07T03:13:19.524Z,31.10
2018-07-07T03:15:48.702Z,30.90
2018-07-07T03:18:17.977Z,30.70
2018-07-07T03:20:47.173Z,30.50
2018-07-07T03:23:16.536Z,30.50
2018-07-07T03:25:45.775Z,30.50
2018-07-07T03:28:14.995Z,30.50
2018-07-07T03:30:44.231Z,30.70
2018-07-07T03:33:13.462Z,31.10
2018-07-07T03:35:42.646Z,32.00
2018-07-07T03:38:11.875Z,32.00
2018-07-07T03:40:41.077Z,32.20
2018-07-07T03:43:10.328Z,32.40
2018-07-07T03:45:39.536Z,32.60
2018-07-07T03:48:08.745Z,32.30
2018-07-07T03:50:37.999Z,32.20
2018-07-07T03:53:07.214Z,32.10
2018-07-07T03:55:36.453Z,32.10
2018-07-07T03:58:05.687Z,32.20
2018-07-07T04:00:34.899Z,32.50
2018-07-07T04:03:04.158Z,32.40
2018-07-07T04:05:33.388Z,32.50
2018-07-07T04:08:02.607Z,32.50
2018-07-07T04:10:31.905Z,33.00
2018-07-07T04:13:01.131Z,33.80
2018-07-07T04:15:31.035Z,33.50
2018-07-07T04:18:00.371Z,33.70
2018-07-07T04:20:29.727Z,33.20
2018-07-07T04:22:59.043Z,33.00
2018-07-07T04:25:28.562Z,32.10
2018-07-07T04:27:57.840Z,31.50
2018-07-07T04:30:27.067Z,32.40
2018-07-07T04:32:56.322Z,32.10
2018-07-07T04:35:25.536Z,31.70
2018-07-07T04:37:54.747Z,32.10
2018-07-07T04:40:24.004Z,32.90
2018-07-07T04:42:53.312Z,33.20
2018-07-07T04:45:22.573Z,33.20
2018-07-07T04:47:51.787Z,33.20
2018-07-07T04:50:21.285Z,33.60
2018-07-07T04:52:50.477Z,33.50
2018-07-07T04:55:19.719Z,34.10
2018-07-07T04:57:48.936Z,33.70
2018-07-07T05:00:18.141Z,33.60
2018-07-07T05:02:47.358Z,33.90
2018-07-07T05:05:16.607Z,33.80
2018-07-07T05:10:15.329Z,34.00
2018-07-07T05:12:44.631Z,33.70
2018-07-07T05:15:13.934Z,33.00
2018-07-07T05:17:43.296Z,32.30
2018-07-07T05:20:12.520Z,32.10
2018-07-07T05:22:41.731Z,31.70
2018-07-07T05:25:10.936Z,31.80
2018-07-07T05:27:40.191Z,32.00
2018-07-07T05:30:09.592Z,32.10
2018-07-07T05:32:38.804Z,32.20
2018-07-07T05:35:08.160Z,32.00
2018-07-07T05:40:06.167Z,31.60
2018-07-07T05:42:35.406Z,31.50
2018-07-07T05:45:05.424Z,31.60
2018-07-07T05:47:34.676Z,31.60
2018-07-07T05:50:03.986Z,31.30
2018-07-07T05:52:33.740Z,31.50
2018-07-07T05:55:03.027Z,31.80
2018-07-07T05:57:32.298Z,32.10
2018-07-07T06:00:01.563Z,32.20
2018-07-07T06:02:31.345Z,32.40
2018-07-07T06:05:00.636Z,32.40
2018-07-07T06:07:30.038Z,32.60
2018-07-07T06:09:59.256Z,32.70
2018-07-07T06:12:28.587Z,32.90
2018-07-07T06:14:57.889Z,32.90
2018-07-07T06:17:27.107Z,32.60
2018-07-07T06:19:56.410Z,32.20
2018-07-07T06:22:25.625Z,32.20
2018-07-07T06:24:54.829Z,32.60
2018-07-07T06:27:25.063Z,31.60
2018-07-07T06:29:55.872Z,32.00
2018-07-07T06:32:25.063Z,32.00
2018-07-07T06:34:54.314Z,32.40
2018-07-07T06:37:23.584Z,31.60
2018-07-07T06:39:53.148Z,32.20
2018-07-07T06:42:22.444Z,32.30
2018-07-07T06:44:51.743Z,31.60
2018-07-07T06:47:21.013Z,31.80
2018-07-07T06:49:50.262Z,32.10
2018-07-07T06:52:19.480Z,32.10
2018-07-07T06:54:48.763Z,32.20
2018-07-07T06:57:18.035Z,32.20
2018-07-07T06:59:47.392Z,31.90
2018-07-07T07:02:16.583Z,32.40
2018-07-07T07:04:46.427Z,32.00
2018-07-07T07:07:15.995Z,32.20
2018-07-07T07:09:45.515Z,32.30
2018-07-07T07:12:14.747Z,32.20
2018-07-07T07:14:44.054Z,32.00
2018-07-07T07:17:13.393Z,31.60
2018-07-07T07:19:42.720Z,31.40
2018-07-07T07:22:11.938Z,31.20
2018-07-07T07:24:41.241Z,30.40
2018-07-07T07:27:10.563Z,30.40
2018-07-07T07:29:40.771Z,30.40
2018-07-07T07:32:10.179Z,29.80
2018-07-07T07:34:39.332Z,29.50
2018-07-07T07:37:08.509Z,29.50
2018-07-07T07:39:37.747Z,29.40
2018-07-07T07:42:07.305Z,28.90
2018-07-07T07:44:36.511Z,29.20
2018-07-07T07:47:05.841Z,29.20
2018-07-07T07:49:35.109Z,29.80
2018-07-07T07:52:04.389Z,30.80
2018-07-07T07:54:33.669Z,32.50
2018-07-07T07:57:02.955Z,32.40
2018-07-07T07:59:32.232Z,31.10
2018-07-07T08:02:01.554Z,31.10
2018-07-07T08:04:30.821Z,31.00
2018-07-07T08:07:00.250Z,31.10
2018-07-07T08:09:29.452Z,31.20
2018-07-07T08:11:58.676Z,30.90
2018-07-07T08:14:28.055Z,31.20
2018-07-07T08:16:57.645Z,34.40
2018-07-07T08:21:55.983Z,30.50
2018-07-07T08:24:25.242Z,29.90
2018-07-07T08:26:54.528Z,29.70
2018-07-07T08:29:23.926Z,29.40
2018-07-07T08:31:53.125Z,29.20
2018-07-07T08:34:22.454Z,29.30
2018-07-07T08:36:51.688Z,29.00
2018-07-07T08:39:20.902Z,29.70
2018-07-07T08:41:50.264Z,30.20
2018-07-07T08:44:19.480Z,29.80
2018-07-07T08:46:48.793Z,31.90
2018-07-07T08:49:18.099Z,30.80
2018-07-07T08:51:47.352Z,29.50
2018-07-07T08:54:16.595Z,29.10
2018-07-07T08:56:45.974Z,28.40
2018-07-07T09:01:44.099Z,28.50
2018-07-07T09:04:13.395Z,28.30
2018-07-07T09:06:42.664Z,28.60
2018-07-07T09:09:11.857Z,29.00
2018-07-07T09:11:41.344Z,29.00
2018-07-07T09:14:10.605Z,28.80
2018-07-07T09:16:40.657Z,29.30
2018-07-07T09:19:09.899Z,29.40
2018-07-07T09:21:39.280Z,29.50
2018-07-07T09:24:08.477Z,29.80
2018-07-07T09:26:37.784Z,30.80
2018-07-07T09:29:07.060Z,30.20
2018-07-07T09:31:36.313Z,30.20
2018-07-07T09:34:05.648Z,29.60
2018-07-07T09:36:35.546Z,29.60
2018-07-07T09:39:06.553Z,29.40
2018-07-07T09:41:35.934Z,29.00
2018-07-07T09:44:05.649Z,29.30
2018-07-07T09:46:34.985Z,29.30
2018-07-07T09:49:04.274Z,29.40
2018-07-07T09:51:33.559Z,29.60
2018-07-07T09:54:02.835Z,29.40
2018-07-07T09:56:32.190Z,29.40
2018-07-07T09:59:01.910Z,29.90
2018-07-07T10:01:31.171Z,29.60
2018-07-07T10:04:00.467Z,29.50
2018-07-07T10:06:29.708Z,29.50
2018-07-07T10:08:58.908Z,29.80
2018-07-07T10:11:28.159Z,29.80
2018-07-07T10:13:57.472Z,29.90
2018-07-07T10:16:26.764Z,30.00
2018-07-07T10:18:56.017Z,30.90
2018-07-07T10:21:25.336Z,30.70
2018-07-07T10:23:55.151Z,30.50
2018-07-07T10:26:24.463Z,30.20
2018-07-07T10:28:53.793Z,29.90
2018-07-07T10:31:23.072Z,30.40
2018-07-07T10:33:52.860Z,30.30
2018-07-07T10:36:22.133Z,29.60
2018-07-07T10:38:51.575Z,29.90
2018-07-07T10:41:20.887Z,29.90
2018-07-07T10:43:50.221Z,30.00
2018-07-07T10:46:19.492Z,30.10
2018-07-07T10:48:48.767Z,30.30
2018-07-07T10:51:19.015Z,30.00
2018-07-07T10:53:48.364Z,29.90
2018-07-07T10:56:17.667Z,30.10
2018-07-07T10:58:46.924Z,29.60
2018-07-07T11:01:16.302Z,29.70
2018-07-07T11:03:45.710Z,29.30
2018-07-07T11:06:15.092Z,29.20
2018-07-07T11:08:44.420Z,28.80
2018-07-07T11:11:13.648Z,28.60
2018-07-07T11:13:42.928Z,28.60
2018-07-07T11:16:12.277Z,28.70
2018-07-07T11:18:41.983Z,30.40
2018-07-07T11:21:11.245Z,31.30
2018-07-07T11:23:40.495Z,31.50
2018-07-07T11:26:10.124Z,30.50
2018-07-07T11:28:39.415Z,29.80
2018-07-07T11:31:09.464Z,29.40
2018-07-07T11:33:39.255Z,29.60
2018-07-07T11:36:08.513Z,29.80
2018-07-07T11:38:37.814Z,29.80
2018-07-07T11:41:07.555Z,29.30
2018-07-07T11:43:36.893Z,28.90
2018-07-07T11:46:06.337Z,28.80
2018-07-07T11:48:35.880Z,28.80
2018-07-07T11:51:05.173Z,28.80
2018-07-07T11:53:35.198Z,28.70
2018-07-07T11:56:04.549Z,28.70
2018-07-07T11:58:33.861Z,28.80
2018-07-07T12:01:03.228Z,28.80
2018-07-07T12:03:32.519Z,28.80
2018-07-07T12:06:01.809Z,28.80
2018-07-07T12:08:31.259Z,28.90
2018-07-07T12:11:00.693Z,28.90
2018-07-07T12:15:59.308Z,28.90
2018-07-07T12:18:28.576Z,28.90
2018-07-07T12:20:57.904Z,29.60
2018-07-07T12:23:27.210Z,28.70
2018-07-07T12:25:57.338Z,28.70
2018-07-07T12:28:27.332Z,28.80
2018-07-07T12:31:03.766Z,29.00
2018-07-07T12:33:33.083Z,28.80
2018-07-07T12:36:02.352Z,28.00
2018-07-07T12:38:31.655Z,27.90
2018-07-07T12:41:00.910Z,27.90
2018-07-07T12:43:30.197Z,28.10
2018-07-07T12:45:59.901Z,28.10
2018-07-07T12:48:29.877Z,28.30
2018-07-07T12:50:59.148Z,28.10
2018-07-07T12:53:28.593Z,28.00
2018-07-07T12:55:58.645Z,27.70
2018-07-07T12:58:27.922Z,27.60
2018-07-07T13:00:57.336Z,28.00
2018-07-07T13:03:26.682Z,28.00
2018-07-07T13:05:56.213Z,28.30
2018-07-07T13:08:25.542Z,28.00
2018-07-07T13:10:54.955Z,28.00
2018-07-07T13:13:24.286Z,28.10
2018-07-07T13:15:53.529Z,28.00
2018-07-07T13:18:23.330Z,28.10
2018-07-07T13:20:52.729Z,28.00
2018-07-07T13:23:22.173Z,27.90
2018-07-07T13:25:51.496Z,28.10
2018-07-07T13:28:20.828Z,28.00
2018-07-07T13:30:50.115Z,28.20
2018-07-07T13:33:19.824Z,28.30
2018-07-07T13:35:49.728Z,28.20
2018-07-07T13:38:19.150Z,27.90
2018-07-07T13:40:48.619Z,27.60
2018-07-07T13:43:17.908Z,27.60
2018-07-07T13:45:47.312Z,27.70
2018-07-07T13:48:16.647Z,28.30
2018-07-07T13:50:49.260Z,27.60
2018-07-07T13:53:18.660Z,27.40
2018-07-07T13:55:47.993Z,27.50
2018-07-07T13:58:17.422Z,27.60
2018-07-07T14:00:46.751Z,27.50
2018-07-07T14:03:16.025Z,27.50
2018-07-07T14:05:46.267Z,27.60
2018-07-07T14:08:15.484Z,27.70
2018-07-07T14:10:44.793Z,27.60
2018-07-07T14:15:42.881Z,27.50
2018-07-07T14:18:12.686Z,27.50
2018-07-07T14:20:41.928Z,27.50
2018-07-07T14:23:11.267Z,27.50
2018-07-07T14:25:40.571Z,27.60
2018-07-07T14:28:09.947Z,27.20
2018-07-07T14:31:42.823Z,27.40
2018-07-07T14:34:12.028Z,27.40
2018-07-07T14:36:41.336Z,27.80
2018-07-07T14:39:16.310Z,27.10
2018-07-07T14:41:48.482Z,27.00
2018-07-07T14:44:18.005Z,27.30
2018-07-07T14:46:47.753Z,27.70
2018-07-07T14:49:17.296Z,27.80
2018-07-07T14:51:46.543Z,28.00
2018-07-07T14:54:15.886Z,27.60
2018-07-07T14:56:45.160Z,27.60
2018-07-07T14:59:14.480Z,27.60
2018-07-07T15:01:43.921Z,27.60
2018-07-07T15:04:14.370Z,27.70
2018-07-07T15:06:43.672Z,27.70
2018-07-07T15:09:12.963Z,27.50
2018-07-07T15:11:42.259Z,27.40
2018-07-07T15:14:11.480Z,27.60
2018-07-07T15:16:40.804Z,27.50
2018-07-07T15:19:10.090Z,27.50
2018-07-07T15:24:09.147Z,27.90
2018-07-07T15:26:38.418Z,27.80
2018-07-07T15:29:07.703Z,27.60
2018-07-07T15:32:02.783Z,27.50
2018-07-07T15:34:32.076Z,27.40
2018-07-07T15:37:01.341Z,27.50
2018-07-07T15:39:30.821Z,27.30
2018-07-07T15:42:00.182Z,27.40
2018-07-07T15:44:30.117Z,27.70
2018-07-07T15:46:59.431Z,27.50
2018-07-07T15:49:28.777Z,27.60
2018-07-07T15:51:58.234Z,27.70
2018-07-07T15:54:29.670Z,27.40
2018-07-07T15:56:58.980Z,27.60
2018-07-07T15:59:28.207Z,27.70
2018-07-07T16:01:57.507Z,27.70
2018-07-07T16:04:26.767Z,27.60
2018-07-07T16:06:56.085Z,27.50
2018-07-07T16:09:26.122Z,27.50
2018-07-07T16:11:55.499Z,27.70
2018-07-07T16:14:25.480Z,28.30
2018-07-07T16:16:54.703Z,27.60
2018-07-07T16:21:53.253Z,27.60
2018-07-07T16:24:22.534Z,27.60
2018-07-07T16:26:56.383Z,27.40
2018-07-07T16:29:26.627Z,28.00
2018-07-07T16:31:56.749Z,27.70
2018-07-07T16:34:25.995Z,27.80
2018-07-07T16:36:55.340Z,27.90
2018-07-07T16:39:25.790Z,27.70
2018-07-07T16:41:56.225Z,27.70
2018-07-07T16:44:25.976Z,27.80
2018-07-07T16:46:56.225Z,27.80
2018-07-07T16:51:54.513Z,27.80
2018-07-07T16:54:23.992Z,27.70
2018-07-07T16:56:53.321Z,27.70
2018-07-07T16:59:22.719Z,27.80
2018-07-07T17:01:52.752Z,27.90
2018-07-07T17:04:22.435Z,28.00
2018-07-07T17:09:20.692Z,28.20
2018-07-07T17:11:51.331Z,28.00
2018-07-07T17:14:22.061Z,28.40
2018-07-07T17:16:51.776Z,28.40
2018-07-07T17:19:21.130Z,28.20
2018-07-07T17:21:51.086Z,28.40
2018-07-07T17:24:21.731Z,28.30
2018-07-07T17:26:51.247Z,28.40
2018-07-07T17:31:49.707Z,28.60
2018-07-07T17:34:19.329Z,29.60
2018-07-07T17:36:48.629Z,28.80
2018-07-07T17:39:17.953Z,29.10
2018-07-07T17:41:47.996Z,29.30
2018-07-07T17:44:17.706Z,29.40
2018-07-07T17:46:47.024Z,29.40
2018-07-07T17:49:17.145Z,29.30
2018-07-07T17:51:46.410Z,29.30
2018-07-07T17:54:15.843Z,29.80
2018-07-07T17:56:45.249Z,29.30
2018-07-07T17:59:15.351Z,29.20
2018-07-07T18:01:44.709Z,29.20
2018-07-07T18:04:14.968Z,29.50
2018-07-07T18:06:44.306Z,29.70
2018-07-07T18:09:14.668Z,29.80
2018-07-07T18:11:44.164Z,30.00
2018-07-07T18:14:13.458Z,29.70
2018-07-07T18:16:43.221Z,29.70
2018-07-07T18:19:12.665Z,29.60
2018-07-07T18:21:42.374Z,29.50
2018-07-07T18:24:12.306Z,29.70
2018-07-07T18:26:41.613Z,29.80
2018-07-07T18:29:10.964Z,29.80
2018-07-07T18:31:40.783Z,29.80
2018-07-07T18:34:10.128Z,29.70
2018-07-07T18:36:39.427Z,29.70
2018-07-07T18:39:08.837Z,29.70
2018-07-07T18:41:38.164Z,29.80
2018-07-07T18:44:07.583Z,29.90
2018-07-07T18:46:36.961Z,29.90
2018-07-07T18:49:06.449Z,29.90
2018-07-07T18:51:35.861Z,29.90
2018-07-07T18:54:05.304Z,30.50
2018-07-07T18:56:34.670Z,30.00
2018-07-07T18:59:03.990Z,30.10
2018-07-07T19:01:33.324Z,30.30
2018-07-07T19:04:02.594Z,30.40
2018-07-07T19:06:32.042Z,30.60
2018-07-07T19:09:01.564Z,30.70
2018-07-07T19:11:31.514Z,30.70
2018-07-07T19:14:01.752Z,31.00
2018-07-07T19:16:31.695Z,31.20
2018-07-07T19:19:01.040Z,31.40
2018-07-07T19:21:35.832Z,31.40
2018-07-07T19:25:09.053Z,31.60
2018-07-07T19:27:38.487Z,31.60
2018-07-07T19:30:07.847Z,32.10
2018-07-07T19:32:42.470Z,32.50
2018-07-07T19:35:17.267Z,32.70
2018-07-07T19:37:47.141Z,32.70
2018-07-07T19:40:16.348Z,32.70
2018-07-07T19:42:47.043Z,32.70
2018-07-07T19:45:16.267Z,32.70
2018-07-07T19:47:45.637Z,32.70
2018-07-07T19:50:19.388Z,32.70
2018-07-07T19:52:48.651Z,33.30
2018-07-07T19:55:17.957Z,32.60
2018-07-07T20:00:15.968Z,32.70
2018-07-07T20:02:45.244Z,33.00
2018-07-07T20:05:15.571Z,33.60
2018-07-07T20:07:44.819Z,32.90
2018-07-07T20:10:14.115Z,33.30
2018-07-07T20:12:43.297Z,33.40
2018-07-07T20:15:12.677Z,33.60
2018-07-07T20:20:36.929Z,34.00
2018-07-07T20:23:07.621Z,33.90
2018-07-07T20:25:37.024Z,34.00
2018-07-07T20:28:11.578Z,34.30
2018-07-07T20:30:40.843Z,34.30
2018-07-07T20:33:10.182Z,34.40
2018-07-07T20:35:39.509Z,34.40
2018-07-07T20:38:09.420Z,34.50
2018-07-07T20:40:38.699Z,34.70
2018-07-07T20:43:08.067Z,34.80
2018-07-07T20:48:06.247Z,35.70
2018-07-07T20:50:35.636Z,35.10
2018-07-07T20:53:04.941Z,35.10
2018-07-07T20:55:34.258Z,35.10
2018-07-07T20:58:03.599Z,35.10
2018-07-07T21:00:32.892Z,35.10
2018-07-07T21:05:30.944Z,34.90
2018-07-07T21:08:00.475Z,35.00
2018-07-07T21:10:30.161Z,35.30
2018-07-07T21:12:59.449Z,35.40
2018-07-07T21:15:28.763Z,35.40
2018-07-07T21:17:58.037Z,35.80
2018-07-07T21:20:27.257Z,35.40
2018-07-07T21:22:57.588Z,35.20
2018-07-07T21:25:26.945Z,35.20
2018-07-07T21:30:25.220Z,35.40
2018-07-07T21:32:54.608Z,35.40
2018-07-07T21:35:24.848Z,35.10
2018-07-07T21:37:54.211Z,35.70
2018-07-07T21:40:23.558Z,35.20
2018-07-07T21:42:52.863Z,35.40
2018-07-07T21:45:22.069Z,35.70
2018-07-07T21:47:51.353Z,35.40
2018-07-07T21:50:21.220Z,35.40
2018-07-07T21:52:50.586Z,35.30
2018-07-07T21:55:19.933Z,35.30
2018-07-07T21:57:54.504Z,35.20
2018-07-07T22:00:29.301Z,35.10
2018-07-07T22:03:03.924Z,35.00
2018-07-07T22:05:37.470Z,35.00
2018-07-07T22:08:12.101Z,35.30
2018-07-07T22:10:41.451Z,35.60
2018-07-07T22:13:10.704Z,35.80
2018-07-07T22:15:40.696Z,35.70
2018-07-07T22:18:09.951Z,35.60
2018-07-07T22:20:39.259Z,35.60
2018-07-07T22:23:08.522Z,35.90
2018-07-07T22:25:37.735Z,35.90
2018-07-07T22:28:08.127Z,36.20
2018-07-07T22:30:37.365Z,36.40
2018-07-07T22:33:11.956Z,36.60
2018-07-07T22:35:46.708Z,36.70
2018-07-07T22:38:21.760Z,36.80
2018-07-07T22:40:51.050Z,36.90
2018-07-07T22:43:20.311Z,37.10
2018-07-07T22:45:49.510Z,37.80
2018-07-07T22:48:19.618Z,37.40
2018-07-07T22:50:49.808Z,37.60
2018-07-07T22:53:19.478Z,37.80
2018-07-07T22:55:48.734Z,37.90
2018-07-07T22:58:18.484Z,37.90
2018-07-07T23:00:49.056Z,38.30
2018-07-07T23:03:18.343Z,38.90
2018-07-07T23:05:47.654Z,38.40
2018-07-07T23:08:17.002Z,38.70
2018-07-07T23:10:46.213Z,38.60
2018-07-07T23:13:15.428Z,38.50
2018-07-07T23:15:44.643Z,38.60
2018-07-07T23:18:13.967Z,39.80
2018-07-07T23:20:43.271Z,39.00
2018-07-07T23:23:12.575Z,38.70
2018-07-07T23:25:41.868Z,38.70
2018-07-07T23:28:11.026Z,38.90
2018-07-07T23:30:40.363Z,39.10
2018-07-07T23:33:09.585Z,39.10
2018-07-07T23:35:38.797Z,39.10
2018-07-07T23:38:08.081Z,39.00
2018-07-07T23:43:06.160Z,39.00
2018-07-07T23:45:35.473Z,38.90
2018-07-07T23:48:04.904Z,38.90
2018-07-07T23:50:34.268Z,38.80
2018-07-07T23:53:03.531Z,38.80
2018-07-07T23:55:32.772Z,38.90
2018-07-07T23:58:02.317Z,38.80
